Time;durP1;ratioP1;P1;durP2;ratioP2;P2;SDS_P1;SDS_P2;PMS_P1;PMS_P2;Temp;Humidity;BMP_temperature;BMP_pressure;BME280_temperature;BME280_humidity;BME280_pressure;Samples;Min_cycle;Max_cycle;Signal;HPM_P1;HPM_P2
2023/10/29 00:03:31;;;;;;;2.08;0.98;;;16.30;78.90;;;;;;10409930;28;20049;-56
2023/10/29 00:08:31;;;;;;;2.25;1.20;;;16.30;78.90;;;;;;10409834;28;20038;-56
2023/10/29 00:13:32;;;;;;;1.83;0.95;;;16.30;78.90;;;;;;10409744;28;20484;-56
2023/10/29 00:18:33;;;;;;;2.25;1.02;;;16.30;78.90;;;;;;10409037;28;20607;-56
2023/10/29 00:23:34;;;;;;;2.40;1.30;;;16.30;78.90;;;;;;10409248;28;20114;-56
2023/10/29 00:28:34;;;;;;;2.80;1.00;;;16.30;78.90;;;;;;10411405;28;20076;-56
2023/10/29 00:33:35;;;;;;;2.08;1.15;;;16.30;78.90;;;;;;10417896;28;20492;-56
2023/10/29 00:38:37;;;;;;;1.50;0.85;;;16.30;78.90;;;;;;10408708;28;20034;-56
2023/10/29 00:43:40;;;;;;;2.80;1.10;;;16.30;78.90;;;;;;10408240;28;20041;-55
2023/10/29 00:48:42;;;;;;;2.38;0.93;;;16.30;78.90;;;;;;10408370;28;20036;-56
2023/10/29 00:53:46;;;;;;;1.88;0.82;;;16.30;78.80;;;;;;10409221;28;20045;-55
2023/10/29 00:58:47;;;;;;;2.50;0.95;;;16.30;78.90;;;;;;10406977;28;20033;-56
2023/10/29 01:03:48;;;;;;;1.55;1.00;;;16.30;78.90;;;;;;10407540;28;20457;-56
2023/10/29 01:08:50;;;;;;;1.50;0.70;;;16.30;79.50;;;;;;10407933;28;20448;-56
2023/10/29 01:13:51;;;;;;;2.63;0.65;;;16.20;78.80;;;;;;10407442;28;20052;-56
2023/10/29 01:18:51;;;;;;;2.08;0.90;;;16.30;78.80;;;;;;10407913;28;20029;-56
2023/10/29 01:23:52;;;;;;;0.70;0.70;;;16.30;78.90;;;;;;10408264;28;20416;-56
2023/10/29 01:28:53;;;;;;;1.70;0.73;;;16.30;78.80;;;;;;10412754;28;20354;-56
2023/10/29 01:33:53;;;;;;;1.73;0.93;;;16.20;78.80;;;;;;10416203;28;20112;-56
2023/10/29 01:38:54;;;;;;;2.03;0.90;;;16.30;78.80;;;;;;10407784;28;20033;-56
2023/10/29 01:43:55;;;;;;;1.42;0.65;;;16.30;78.90;;;;;;10407898;28;20072;-56
2023/10/29 01:48:56;;;;;;;1.50;0.70;;;16.30;78.90;;;;;;10414530;28;20436;-56
2023/10/29 01:53:57;;;;;;;4.60;1.25;;;16.30;78.80;;;;;;10415180;28;20033;-56
2023/10/29 01:58:58;;;;;;;1.80;0.90;;;16.30;78.80;;;;;;10414325;28;20029;-56
2023/10/29 02:03:59;;;;;;;1.25;0.65;;;16.20;78.80;;;;;;10414624;28;20031;-56
2023/10/29 02:09:02;;;;;;;0.95;0.60;;;16.20;78.80;;;;;;10413972;28;20037;-56
2023/10/29 02:14:04;;;;;;;1.23;0.65;;;16.20;78.80;;;;;;10412711;28;20530;-56
2023/10/29 02:19:05;;;;;;;2.50;0.98;;;16.20;79.40;;;;;;10413846;28;20033;-56
2023/10/29 02:24:06;;;;;;;2.15;1.00;;;16.20;78.70;;;;;;10414384;28;20017;-56
2023/10/29 02:29:07;;;;;;;1.67;0.77;;;16.20;78.80;;;;;;10420069;28;20617;-56
2023/10/29 02:34:08;;;;;;;1.58;0.93;;;16.20;78.80;;;;;;10418428;28;20033;-56
2023/10/29 02:39:08;;;;;;;2.40;0.68;;;16.20;78.60;;;;;;10412840;28;20032;-57
2023/10/29 02:44:09;;;;;;;1.55;1.02;;;16.20;78.70;;;;;;10413434;28;20025;-56
2023/10/29 02:49:10;;;;;;;1.98;0.70;;;16.20;78.60;;;;;;10412643;28;20037;-56
2023/10/29 02:54:10;;;;;;;0.98;0.55;;;16.20;78.70;;;;;;10412884;28;20026;-56
2023/10/29 02:59:11;;;;;;;1.13;0.52;;;16.20;78.70;;;;;;10411900;28;20060;-56
2023/10/29 03:04:12;;;;;;;1.08;0.50;;;16.20;78.70;;;;;;10412596;28;20030;-56
2023/10/29 03:09:13;;;;;;;1.08;0.70;;;16.20;78.70;;;;;;10411504;28;20096;-56
2023/10/29 03:14:13;;;;;;;0.68;0.40;;;16.20;78.60;;;;;;10411905;28;20033;-56
2023/10/29 03:19:14;;;;;;;1.27;0.73;;;16.20;78.60;;;;;;10411497;28;20037;-56
2023/10/29 03:24:15;;;;;;;1.13;0.70;;;16.20;78.60;;;;;;10411484;28;20028;-56
2023/10/29 03:29:16;;;;;;;1.20;0.80;;;16.20;78.50;;;;;;10419052;28;20049;-56
2023/10/29 03:34:17;;;;;;;1.65;0.60;;;16.20;78.60;;;;;;10414712;28;20481;-56
2023/10/29 03:39:18;;;;;;;1.27;0.60;;;16.20;78.60;;;;;;10410709;28;20030;-56
2023/10/29 03:44:18;;;;;;;1.20;0.50;;;16.20;78.60;;;;;;10410633;28;20376;-56
2023/10/29 03:49:19;;;;;;;1.60;0.63;;;16.20;78.60;;;;;;10410533;28;20040;-56
2023/10/29 03:54:20;;;;;;;1.60;0.50;;;16.20;78.60;;;;;;10410237;28;20045;-56
2023/10/29 03:59:20;;;;;;;1.67;0.47;;;16.20;78.60;;;;;;10409880;28;20473;-55
2023/10/29 04:04:22;;;;;;;1.27;0.50;;;16.20;78.50;;;;;;10410188;28;20033;-56
2023/10/29 04:09:22;;;;;;;1.75;0.70;;;16.20;78.60;;;;;;10409197;28;20072;-55
2023/10/29 04:14:23;;;;;;;0.90;0.50;;;16.20;78.60;;;;;;10409846;28;20035;-55
2023/10/29 04:19:24;;;;;;;0.98;0.30;;;16.20;78.60;;;;;;10409538;28;20481;-56
2023/10/29 04:24:25;;;;;;;0.60;0.45;;;16.20;78.60;;;;;;10409303;28;20539;-56
2023/10/29 04:29:26;;;;;;;0.98;0.57;;;16.20;78.50;;;;;;10418729;28;20052;-56
2023/10/29 04:34:27;;;;;;;1.35;0.47;;;16.10;78.40;;;;;;10411042;28;20025;-56
2023/10/29 04:39:27;;;;;;;0.73;0.40;;;16.20;78.60;;;;;;10408811;28;20095;-56
2023/10/29 04:44:28;;;;;;;0.75;0.38;;;16.10;78.50;;;;;;10408763;28;20029;-56
2023/10/29 04:49:29;;;;;;;1.52;0.50;;;16.20;78.50;;;;;;10409036;28;20048;-55
2023/10/29 04:54:30;;;;;;;1.50;0.40;;;16.10;78.40;;;;;;10408678;28;20037;-55
2023/10/29 04:59:30;;;;;;;1.20;0.57;;;16.20;78.50;;;;;;10408649;28;20025;-56
2023/10/29 05:04:31;;;;;;;0.55;0.50;;;16.20;78.60;;;;;;10408242;28;20037;-56
2023/10/29 05:09:32;;;;;;;1.23;0.40;;;16.20;78.60;;;;;;10408499;28;20679;-56
2023/10/29 05:14:33;;;;;;;0.90;0.57;;;16.10;78.50;;;;;;10408227;28;20041;-55
2023/10/29 05:19:34;;;;;;;0.50;0.50;;;16.10;78.60;;;;;;10408659;28;20040;-56
2023/10/29 05:24:34;;;;;;;2.03;0.60;;;16.10;78.50;;;;;;10415839;28;20029;-55
2023/10/29 05:29:35;;;;;;;0.75;0.50;;;16.10;78.40;;;;;;10426879;28;20094;-56
2023/10/29 05:34:36;;;;;;;1.05;0.50;;;16.10;78.40;;;;;;10417209;28;20033;-56
2023/10/29 05:39:37;;;;;;;0.85;0.40;;;16.10;78.30;;;;;;10415429;28;20034;-56
2023/10/29 05:44:38;;;;;;;1.08;0.30;;;16.10;78.50;;;;;;10415328;28;20448;-56
2023/10/29 05:49:39;;;;;;;0.55;0.30;;;16.30;78.30;;;;;;10415301;28;20025;-56
2023/10/29 05:54:40;;;;;;;0.73;0.40;;;16.60;77.40;;;;;;10414556;28;20037;-56
2023/10/29 05:59:40;;;;;;;0.28;0.28;;;16.80;76.60;;;;;;10414793;28;20032;-55
2023/10/29 06:04:41;;;;;;;2.35;0.50;;;17.00;76.10;;;;;;10414426;28;20538;-56
2023/10/29 06:09:42;;;;;;;8.75;1.40;;;17.10;75.50;;;;;;10413278;28;20031;-56
2023/10/29 06:14:45;;;;;;;5.25;0.82;;;17.30;75.50;;;;;;10413829;28;20658;-57
2023/10/29 06:19:45;;;;;;;7.10;0.73;;;17.80;73.80;;;;;;10412206;28;20043;-56
2023/10/29 06:24:46;;;;;;;3.53;1.05;;;18.10;74.40;;;;;;10408094;28;20032;-56
2023/10/29 06:29:47;;;;;;;10.40;1.25;;;18.30;73.20;;;;;;10413513;28;20042;-56
2023/10/29 06:34:48;;;;;;;11.27;1.90;;;18.20;73.30;;;;;;10411772;28;20052;-57
2023/10/29 06:39:48;;;;;;;8.32;1.00;;;18.10;73.60;;;;;;10412344;28;20026;-56
2023/10/29 06:44:49;;;;;;;6.45;0.80;;;18.00;74.30;;;;;;10421455;28;20030;-56
2023/10/29 06:49:50;;;;;;;7.05;0.93;;;17.90;74.40;;;;;;10414330;28;20037;-57
2023/10/29 06:54:51;;;;;;;12.65;1.35;;;17.90;74.90;;;;;;10410716;28;20041;-56
2023/10/29 06:59:52;;;;;;;5.43;1.00;;;17.70;75.20;;;;;;10411871;28;20473;-57
2023/10/29 07:04:53;;;;;;;11.75;1.20;;;17.70;75.80;;;;;;10411087;28;20029;-57
2023/10/29 07:09:54;;;;;;;11.45;1.48;;;17.60;75.90;;;;;;10411423;28;20044;-57
2023/10/29 07:14:56;;;;;;;5.20;1.20;;;17.50;76.40;;;;;;10411143;28;20029;-56
2023/10/29 07:19:57;;;;;;;10.60;1.73;;;17.50;76.40;;;;;;10410848;28;20046;-57
2023/10/29 07:24:57;;;;;;;7.78;1.38;;;17.50;76.40;;;;;;10410759;28;20503;-57
2023/10/29 07:29:58;;;;;;;10.75;1.45;;;17.60;76.40;;;;;;10411176;28;20128;-57
2023/10/29 07:34:59;;;;;;;8.52;1.60;;;17.60;76.50;;;;;;10410097;28;20109;-57
2023/10/29 07:40:00;;;;;;;8.20;1.80;;;17.70;76.50;;;;;;10410188;28;20025;-57
2023/10/29 07:45:01;;;;;;;10.77;2.85;;;17.80;77.00;;;;;;10408908;28;20472;-57
2023/10/29 07:50:02;;;;;;;6.72;1.95;;;17.80;77.10;;;;;;10409889;28;20049;-57
2023/10/29 07:55:04;;;;;;;7.78;2.03;;;17.80;77.10;;;;;;10438123;28;20136;-57
2023/10/29 08:00:15;;;;;;;9.52;2.53;;;17.90;76.80;;;;;;10409277;28;20028;-57
2023/10/29 08:05:16;;;;;;;6.75;2.00;;;18.00;76.60;;;;;;10409506;28;20578;-56
2023/10/29 08:10:17;;;;;;;12.82;1.90;;;17.90;77.10;;;;;;10409422;28;20029;-56
2023/10/29 08:15:17;;;;;;;8.82;2.28;;;17.90;77.50;;;;;;10389757;28;20345;-56
2023/10/29 08:20:18;;;;;;;7.30;1.42;;;17.90;78.20;;;;;;10398666;28;20480;-56
2023/10/29 08:25:19;;;;;;;11.43;2.40;;;17.90;77.60;;;;;;10409169;28;20029;-57
2023/10/29 08:30:19;;;;;;;10.70;1.63;;;17.90;77.60;;;;;;10421492;28;20049;-57
2023/10/29 08:35:20;;;;;;;12.00;2.25;;;17.80;77.70;;;;;;10408809;28;20037;-57
2023/10/29 08:40:21;;;;;;;8.63;1.98;;;17.90;77.60;;;;;;10407503;28;20041;-57
2023/10/29 08:45:22;;;;;;;5.85;1.40;;;17.90;77.80;;;;;;10423605;28;20056;-56
2023/10/29 08:50:23;;;;;;;7.80;1.58;;;17.90;77.80;;;;;;10408946;28;20538;-55
2023/10/29 08:55:24;;;;;;;7.85;1.50;;;17.90;77.70;;;;;;10411847;28;20026;-59
2023/10/29 09:00:24;;;;;;;4.85;1.67;;;17.90;77.70;;;;;;10414768;28;20029;-56
2023/10/29 09:05:25;;;;;;;12.45;1.75;;;17.80;77.40;;;;;;10416076;28;20026;-56
2023/10/29 09:10:28;;;;;;;7.95;1.60;;;17.70;77.10;;;;;;10415364;28;20044;-57
2023/10/29 09:15:30;;;;;;;5.57;1.60;;;17.70;77.50;;;;;;10406136;28;20037;-59
2023/10/29 09:20:32;;;;;;;5.15;1.33;;;17.70;77.40;;;;;;10414644;28;20113;-59
2023/10/29 09:25:32;;;;;;;10.95;1.13;;;17.60;77.50;;;;;;10416033;28;20022;-59
2023/10/29 09:30:33;;;;;;;8.75;1.75;;;17.60;77.70;;;;;;10416535;28;20042;-59
2023/10/29 09:35:37;;;;;;;5.10;1.23;;;17.50;77.70;;;;;;10414930;28;20027;-58
2023/10/29 09:40:38;;;;;;;8.68;2.75;;;17.50;77.60;;;;;;10414961;28;20018;-57
2023/10/29 09:45:46;;;;;;;3.53;1.20;;;17.60;77.80;;;;;;10411108;28;20036;-57
2023/10/29 09:50:48;;;;;;;4.35;1.55;;;17.70;76.90;;;;;;10414954;28;20104;-60
2023/10/29 09:55:51;;;;;;;8.18;3.17;;;17.60;77.40;;;;;;10416038;28;20028;-59
2023/10/29 10:00:52;;;;;;;4.68;1.38;;;17.50;77.50;;;;;;10430086;28;20357;-59
2023/10/29 10:05:54;;;;;;;5.55;3.20;;;17.40;77.90;;;;;;10423225;28;20033;-57
2023/10/29 10:10:57;;;;;;;5.85;1.20;;;17.30;77.90;;;;;;10441976;28;20429;-56
2023/10/29 10:16:06;;;;;;;5.25;1.40;;;17.40;77.90;;;;;;10425563;28;20061;-56
2023/10/29 10:21:07;;;;;;;6.68;2.20;;;17.30;78.10;;;;;;10413335;28;20102;-56
2023/10/29 10:26:08;;;;;;;5.30;2.05;;;17.30;78.40;;;;;;10411675;28;20090;-56
2023/10/29 10:31:14;;;;;;;5.72;1.20;;;17.20;78.50;;;;;;10424585;28;20049;-56
2023/10/29 10:36:31;;;;;;;5.45;1.20;;;17.20;78.60;;;;;;10427624;28;20041;-56
2023/10/29 10:41:43;;;;;;;7.03;1.77;;;17.20;78.50;;;;;;10429958;28;20025;-56
2023/10/29 10:46:48;;;;;;;13.68;2.75;;;17.10;78.60;;;;;;10413315;28;20109;-55
2023/10/29 10:51:58;;;;;;;13.18;2.67;;;17.20;78.60;;;;;;10411023;28;20486;-57
2023/10/29 10:57:00;;;;;;;11.95;3.38;;;17.20;78.60;;;;;;10410925;28;20036;-56
2023/10/29 11:02:02;;;;;;;24.20;4.18;;;17.30;78.80;;;;;;10410052;28;20017;-55
2023/10/29 11:07:02;;;;;;;22.27;3.42;;;17.50;78.70;;;;;;10410732;28;20086;-56
2023/10/29 11:12:05;;;;;;;28.35;3.90;;;17.60;78.70;;;;;;10409325;28;20030;-54
2023/10/29 11:17:06;;;;;;;8.75;2.78;;;17.60;78.50;;;;;;10409293;28;20041;-58
2023/10/29 11:22:25;;;;;;;13.75;2.70;;;17.50;78.60;;;;;;10408903;28;20036;-57
2023/10/29 11:27:46;;;;;;;15.98;3.47;;;17.50;79.00;;;;;;10410178;28;20053;-57
2023/10/29 11:33:09;;;;;;;17.48;3.15;;;17.40;78.70;;;;;;10421305;28;20083;-57
2023/10/29 11:38:34;;;;;;;16.30;3.15;;;17.40;78.90;;;;;;10398018;28;20033;-57
2023/10/29 11:43:34;;;;;;;24.38;5.18;;;17.20;79.30;;;;;;10408863;28;20030;-58
2023/10/29 11:49:05;;;;;;;22.65;3.92;;;17.30;79.40;;;;;;10407353;28;20026;-57
2023/10/29 11:54:06;;;;;;;22.63;3.97;;;17.30;79.20;;;;;;10409196;28;20056;-57
2023/10/29 11:59:07;;;;;;;18.88;5.25;;;17.30;79.40;;;;;;10408947;28;20385;-57
2023/10/29 12:04:09;;;;;;;19.67;3.70;;;17.20;79.70;;;;;;10408705;28;20045;-57
2023/10/29 12:09:25;;;;;;;18.42;3.60;;;17.20;79.70;;;;;;10407818;28;20108;-57
2023/10/29 12:14:46;;;;;;;17.02;4.43;;;17.30;79.40;;;;;;10408448;28;20037;-58
2023/10/29 12:19:47;;;;;;;13.75;3.05;;;17.20;79.40;;;;;;10408621;28;20033;-58
2023/10/29 12:25:00;;;;;;;12.85;3.08;;;17.20;79.40;;;;;;10408544;28;20021;-58
2023/10/29 12:30:00;;;;;;;12.48;3.95;;;17.10;79.40;;;;;;10419442;28;20067;-58
2023/10/29 12:35:01;;;;;;;11.88;3.30;;;17.10;79.40;;;;;;10407842;28;20037;-58
2023/10/29 12:40:05;;;;;;;11.10;2.78;;;17.10;79.20;;;;;;10406228;28;20030;-58
2023/10/29 12:45:08;;;;;;;8.20;2.67;;;17.10;79.20;;;;;;10406614;28;20026;-59
2023/10/29 12:50:09;;;;;;;12.95;2.67;;;17.10;79.40;;;;;;10407021;28;20037;-58
2023/10/29 12:55:10;;;;;;;6.15;2.33;;;17.10;79.40;;;;;;10407445;28;20033;-58
2023/10/29 13:00:12;;;;;;;11.30;2.20;;;17.00;79.20;;;;;;10408311;28;20075;-58
2023/10/29 13:05:13;;;;;;;6.47;1.95;;;17.00;79.20;;;;;;10407327;28;20021;-58
2023/10/29 13:10:16;;;;;;;6.57;1.73;;;17.00;79.00;;;;;;10406790;28;20033;-58
2023/10/29 13:15:18;;;;;;;4.38;1.95;;;17.00;79.00;;;;;;10407436;28;20539;-57
2023/10/29 13:20:20;;;;;;;6.10;1.60;;;17.00;79.00;;;;;;10388980;28;20355;-58
2023/10/29 13:25:21;;;;;;;6.85;1.80;;;17.00;79.00;;;;;;10406946;28;20124;-58
2023/10/29 13:30:21;;;;;;;5.43;1.50;;;17.00;79.00;;;;;;10419277;28;20063;-58
2023/10/29 13:35:22;;;;;;;5.75;1.58;;;17.00;79.00;;;;;;10406572;28;20061;-58
2023/10/29 13:40:23;;;;;;;4.13;1.60;;;17.00;79.00;;;;;;10405328;28;20572;-58
2023/10/29 13:45:23;;;;;;;4.93;2.42;;;16.90;78.90;;;;;;10414254;28;20049;-58
2023/10/29 13:50:24;;;;;;;4.20;1.60;;;16.90;78.90;;;;;;10413620;28;20068;-58
2023/10/29 13:55:25;;;;;;;3.92;1.00;;;16.90;78.80;;;;;;10414096;28;20037;-58
2023/10/29 14:00:26;;;;;;;3.03;1.17;;;16.90;78.80;;;;;;10413661;28;20038;-58
2023/10/29 14:05:30;;;;;;;4.78;1.33;;;16.90;78.90;;;;;;10414169;28;20440;-58
2023/10/29 14:10:31;;;;;;;3.03;1.13;;;16.90;78.90;;;;;;10412496;28;20042;-58
2023/10/29 14:15:32;;;;;;;4.80;1.23;;;16.90;79.00;;;;;;10413474;28;20164;-58
2023/10/29 14:20:32;;;;;;;4.93;1.27;;;16.90;79.00;;;;;;10412116;28;20034;-58
2023/10/29 14:25:33;;;;;;;5.03;1.40;;;16.80;78.90;;;;;;10413028;28;20029;-58
2023/10/29 14:30:34;;;;;;;2.42;0.70;;;16.80;78.90;;;;;;10411862;28;20053;-56
2023/10/29 14:35:35;;;;;;;3.72;1.00;;;16.80;79.00;;;;;;10412155;28;20435;-58
2023/10/29 14:40:36;;;;;;;2.60;0.80;;;16.80;79.00;;;;;;10412298;28;20045;-58
2023/10/29 14:45:41;;;;;;;3.72;1.02;;;16.80;78.90;;;;;;10411397;28;20034;-58
2023/10/29 14:50:42;;;;;;;3.58;1.88;;;16.90;78.60;;;;;;10411751;28;20123;-58
2023/10/29 14:55:47;;;;;;;13.38;2.97;;;16.90;78.40;;;;;;10411215;28;20119;-58
2023/10/29 15:00:47;;;;;;;5.07;1.33;;;16.90;78.20;;;;;;10409629;28;20040;-58
2023/10/29 15:05:48;;;;;;;2.55;0.90;;;16.90;78.10;;;;;;10411425;28;20026;-58
2023/10/29 15:10:53;;;;;;;4.20;1.10;;;17.00;78.20;;;;;;10410473;28;20381;-58
2023/10/29 15:15:54;;;;;;;2.67;0.85;;;16.90;78.10;;;;;;10408514;28;20554;-57
2023/10/29 15:21:05;;;;;;;4.50;1.42;;;16.90;78.10;;;;;;10410314;28;20071;-58
2023/10/29 15:26:14;;;;;;;3.72;0.98;;;16.90;78.10;;;;;;10410886;28;20116;-58
2023/10/29 15:31:15;;;;;;;2.78;1.27;;;16.90;78.10;;;;;;10421627;28;20041;-58
2023/10/29 15:36:15;;;;;;;5.22;1.48;;;16.90;78.00;;;;;;10410035;28;20497;-58
2023/10/29 15:41:18;;;;;;;3.95;1.00;;;16.90;78.10;;;;;;10409741;28;20045;-58
2023/10/29 15:46:19;;;;;;;2.88;0.85;;;16.90;78.10;;;;;;10409935;28;20048;-58
2023/10/29 15:51:24;;;;;;;1.85;0.70;;;16.90;78.20;;;;;;10407843;28;20332;-58
2023/10/29 15:56:26;;;;;;;3.38;1.00;;;16.90;78.20;;;;;;10408419;28;20037;-58
2023/10/29 16:01:26;;;;;;;2.60;1.63;;;16.90;78.30;;;;;;10409271;28;20029;-57
2023/10/29 16:06:27;;;;;;;2.28;0.90;;;16.90;78.20;;;;;;10407595;28;20042;-58
2023/10/29 16:11:28;;;;;;;3.92;1.02;;;16.90;78.00;;;;;;10405721;28;20037;-57
2023/10/29 16:16:29;;;;;;;8.98;1.30;;;17.10;77.80;;;;;;10409111;28;20075;-58
2023/10/29 16:21:30;;;;;;;3.70;1.00;;;17.10;77.30;;;;;;10409014;28;20072;-58
2023/10/29 16:26:30;;;;;;;4.63;0.80;;;17.30;77.10;;;;;;10408984;28;20080;-58
2023/10/29 16:31:31;;;;;;;5.47;1.13;;;17.40;77.00;;;;;;10422896;28;20051;-58
2023/10/29 16:36:32;;;;;;;5.47;1.13;;;17.50;76.80;;;;;;10425479;28;21577;-58
2023/10/29 16:41:32;;;;;;;7.85;2.13;;;17.50;77.00;;;;;;10409457;28;20451;-58
2023/10/29 16:46:33;;;;;;;6.40;2.10;;;17.60;77.80;;;;;;10411599;28;20033;-58
2023/10/29 16:51:34;;;;;;;18.90;3.03;;;17.70;78.80;;;;;;10408364;28;20025;-58
2023/10/29 16:56:34;;;;;;;18.33;2.65;;;17.70;79.30;;;;;;10408903;28;20044;-57
2023/10/29 17:01:37;;;;;;;11.18;2.03;;;18.00;79.70;;;;;;10408441;28;20086;-58
2023/10/29 17:06:38;;;;;;;14.85;2.22;;;18.20;79.10;;;;;;10408590;28;20078;-57
2023/10/29 17:11:39;;;;;;;12.05;2.83;;;18.00;79.30;;;;;;10408054;28;20033;-58
2023/10/29 17:16:42;;;;;;;20.80;3.58;;;18.00;79.60;;;;;;10411714;28;20060;-56
2023/10/29 17:21:42;;;;;;;9.65;2.38;;;17.90;79.70;;;;;;10412162;28;20029;-58
2023/10/29 17:26:44;;;;;;;10.15;2.58;;;17.70;79.40;;;;;;10415187;28;20045;-57
2023/10/29 17:31:44;;;;;;;7.35;2.17;;;17.60;79.70;;;;;;10416285;28;20384;-57
2023/10/29 17:36:45;;;;;;;12.55;2.20;;;17.50;79.70;;;;;;10415889;28;20037;-57
2023/10/29 17:41:46;;;;;;;14.27;1.90;;;17.60;79.90;;;;;;10415512;28;20032;-57
2023/10/29 17:46:47;;;;;;;14.00;2.83;;;17.60;80.00;;;;;;10415767;28;20397;-57
2023/10/29 17:51:48;;;;;;;5.85;1.95;;;17.50;79.40;;;;;;10414933;28;20025;-57
2023/10/29 17:56:50;;;;;;;8.25;1.65;;;17.30;79.80;;;;;;10414979;28;20481;-58
2023/10/29 18:01:54;;;;;;;8.18;2.00;;;17.20;80.10;;;;;;10414500;28;20037;-57
2023/10/29 18:06:55;;;;;;;6.88;1.85;;;17.20;80.10;;;;;;10414856;28;20059;-58
2023/10/29 18:11:55;;;;;;;4.55;2.30;;;17.20;80.10;;;;;;10414113;28;20576;-57
2023/10/29 18:16:56;;;;;;;4.68;1.42;;;17.10;80.10;;;;;;10414958;28;20047;-57
2023/10/29 18:21:58;;;;;;;6.60;1.67;;;17.10;80.00;;;;;;10413685;28;20044;-57
2023/10/29 18:26:59;;;;;;;7.05;1.77;;;17.10;80.00;;;;;;10413235;28;20030;-57
2023/10/29 18:32:00;;;;;;;5.32;1.45;;;17.10;80.00;;;;;;10424870;28;20070;-57
2023/10/29 18:37:01;;;;;;;4.97;1.52;;;17.10;80.00;;;;;;10412366;28;20072;-57
2023/10/29 18:42:02;;;;;;;4.82;1.60;;;17.10;79.90;;;;;;10421754;28;20030;-57
2023/10/29 18:47:03;;;;;;;5.35;1.52;;;17.10;80.10;;;;;;10430181;28;20021;-56
2023/10/29 18:52:05;;;;;;;5.65;1.88;;;17.10;80.90;;;;;;10425220;28;20057;-57
2023/10/29 18:57:06;;;;;;;5.43;2.30;;;17.00;80.40;;;;;;10429162;28;20075;-58
2023/10/29 19:02:07;;;;;;;7.18;1.70;;;17.10;79.40;;;;;;10426751;28;20026;-56
2023/10/29 19:07:10;;;;;;;6.70;1.85;;;17.20;78.30;;;;;;10423791;28;20435;-55
2023/10/29 19:12:11;;;;;;;6.90;1.42;;;17.30;77.50;;;;;;10427557;28;20025;-57
2023/10/29 19:17:12;;;;;;;3.65;1.27;;;17.40;77.30;;;;;;10429105;28;20075;-56
2023/10/29 19:22:13;;;;;;;3.33;1.23;;;17.50;77.40;;;;;;10393556;28;20021;-56
2023/10/29 19:27:13;;;;;;;2.92;1.33;;;17.40;77.50;;;;;;10427058;28;20032;-56
2023/10/29 19:32:14;;;;;;;4.00;1.08;;;17.40;77.60;;;;;;10425332;28;20470;-57
2023/10/29 19:37:15;;;;;;;6.82;1.65;;;17.40;77.70;;;;;;10415893;28;20064;-56
2023/10/29 19:42:16;;;;;;;5.47;1.25;;;17.50;78.70;;;;;;10407366;28;20021;-56
2023/10/29 19:47:16;;;;;;;4.45;1.15;;;17.50;78.90;;;;;;10408508;28;20029;-56
2023/10/29 19:52:17;;;;;;;5.45;1.33;;;17.30;78.40;;;;;;10420895;28;20092;-56
2023/10/29 19:57:18;;;;;;;5.97;1.92;;;17.30;78.40;;;;;;10414042;28;20321;-55
2023/10/29 20:02:19;;;;;;;4.80;1.52;;;17.30;78.60;;;;;;10413280;28;20032;-55
2023/10/29 20:07:19;;;;;;;4.38;1.13;;;17.20;78.60;;;;;;10425847;28;20071;-59
2023/10/29 20:12:20;;;;;;;3.88;1.60;;;17.20;78.70;;;;;;10426943;28;20029;-59
2023/10/29 20:17:21;;;;;;;10.00;1.85;;;17.10;78.80;;;;;;10426346;28;20025;-59
2023/10/29 20:22:22;;;;;;;8.20;1.42;;;17.00;78.80;;;;;;10418854;28;20078;-59
2023/10/29 20:27:23;;;;;;;4.43;1.38;;;17.00;78.70;;;;;;10408000;28;20465;-59
2023/10/29 20:32:23;;;;;;;3.38;1.20;;;17.00;78.80;;;;;;10421581;28;20051;-59
2023/10/29 20:37:24;;;;;;;5.13;1.23;;;17.00;78.80;;;;;;10406704;28;20480;-57
2023/10/29 20:42:25;;;;;;;4.32;1.00;;;17.00;78.80;;;;;;10409218;28;21125;-57
2023/10/29 20:47:26;;;;;;;3.67;1.20;;;16.90;78.70;;;;;;10406051;28;20037;-57
2023/10/29 20:52:26;;;;;;;3.15;1.35;;;16.90;78.80;;;;;;10405123;28;20040;-57
2023/10/29 20:57:28;;;;;;;3.55;1.50;;;16.90;78.80;;;;;;10405748;28;20558;-57
2023/10/29 21:02:29;;;;;;;3.28;1.10;;;16.90;78.90;;;;;;10407074;28;20034;-58
2023/10/29 21:07:29;;;;;;;4.30;1.10;;;16.90;78.80;;;;;;10414984;28;20033;-55
2023/10/29 21:12:30;;;;;;;3.28;1.15;;;16.90;78.70;;;;;;10407929;28;20040;-56
2023/10/29 21:17:31;;;;;;;2.17;1.52;;;16.80;78.90;;;;;;10408241;28;20029;-57
2023/10/29 21:22:31;;;;;;;4.35;1.33;;;16.80;79.00;;;;;;10408169;28;20152;-56
2023/10/29 21:27:32;;;;;;;3.30;1.10;;;16.80;79.00;;;;;;10408256;28;20034;-57
2023/10/29 21:32:33;;;;;;;4.05;1.10;;;16.80;79.00;;;;;;10420325;28;20053;-56
2023/10/29 21:37:33;;;;;;;3.88;0.90;;;16.80;79.10;;;;;;10407706;28;20463;-57
2023/10/29 21:42:34;;;;;;;1.80;0.85;;;16.80;79.10;;;;;;10408324;28;20553;-56
2023/10/29 21:47:37;;;;;;;3.92;1.20;;;16.70;79.00;;;;;;10407656;28;20660;-56
2023/10/29 21:52:39;;;;;;;2.97;1.58;;;16.70;79.00;;;;;;10408103;28;20476;-56
2023/10/29 21:57:40;;;;;;;4.32;0.90;;;16.70;79.10;;;;;;10407557;28;20033;-57
2023/10/29 22:02:40;;;;;;;2.92;0.85;;;16.70;79.00;;;;;;10409800;28;20147;-57
2023/10/29 22:07:41;;;;;;;2.65;1.10;;;16.70;79.10;;;;;;10414452;28;20439;-57
2023/10/29 22:12:43;;;;;;;2.83;0.82;;;16.70;79.00;;;;;;10414431;28;20432;-56
2023/10/29 22:17:44;;;;;;;1.67;0.77;;;16.70;79.00;;;;;;10413738;28;20037;-56
2023/10/29 22:22:44;;;;;;;1.10;0.55;;;16.70;78.90;;;;;;10414425;28;20053;-56
2023/10/29 22:27:45;;;;;;;1.55;0.70;;;16.70;78.90;;;;;;10413886;28;20029;-56
2023/10/29 22:32:46;;;;;;;2.78;0.70;;;16.60;78.90;;;;;;10426183;28;20099;-57
2023/10/29 22:37:47;;;;;;;2.17;1.08;;;16.60;78.90;;;;;;10412864;28;20030;-56
2023/10/29 22:42:48;;;;;;;2.47;0.82;;;16.60;78.90;;;;;;10413566;28;20021;-56
2023/10/29 22:47:49;;;;;;;2.40;1.08;;;16.60;78.90;;;;;;10413046;28;20057;-56
2023/10/29 22:52:50;;;;;;;4.20;0.90;;;16.60;79.10;;;;;;10413215;28;20053;-56
2023/10/29 22:57:53;;;;;;;3.08;0.90;;;16.60;79.20;;;;;;10412485;28;20033;-56
2023/10/29 23:02:54;;;;;;;3.35;0.90;;;16.60;79.10;;;;;;10413076;28;20469;-57
2023/10/29 23:07:55;;;;;;;1.38;1.05;;;16.60;79.10;;;;;;10411940;28;20029;-57
2023/10/29 23:12:56;;;;;;;1.88;0.80;;;16.60;79.10;;;;;;10412066;28;20029;-57
2023/10/29 23:17:58;;;;;;;2.15;0.60;;;16.60;79.10;;;;;;10411879;28;20116;-56
2023/10/29 23:22:58;;;;;;;1.30;0.70;;;16.60;79.10;;;;;;10412015;28;20037;-56
2023/10/29 23:27:59;;;;;;;1.83;0.98;;;16.60;79.00;;;;;;10411614;28;20032;-56
2023/10/29 23:33:00;;;;;;;1.92;0.90;;;16.60;79.00;;;;;;10424161;28;20076;-57
2023/10/29 23:38:01;;;;;;;2.28;0.90;;;16.60;79.00;;;;;;10410542;28;20036;-56
2023/10/29 23:43:03;;;;;;;1.83;0.80;;;16.60;79.00;;;;;;10411244;28;20026;-56
2023/10/29 23:48:04;;;;;;;1.77;1.02;;;16.50;78.90;;;;;;10410576;28;20397;-57
2023/10/29 23:53:06;;;;;;;1.63;0.85;;;16.50;78.90;;;;;;10410503;28;20029;-56
2023/10/29 23:58:06;;;;;;;1.77;0.82;;;16.50;78.90;;;;;;10410286;28;20067;-56
